LIRS/GRS METAR and TAF weather

Enter ICAO airport designator
Station Type Date Time Source
LIRS METAR 2020/01/21 08:55 UTC NOAA

LIRS 210855Z 02011KT CAVOK 09/02 Q1039


Station Type Date Time Source
LIRS Decoded METAR 2020/01/21 08:55 UTC NOAA

Grosseto, Italy (LIRS) 42-45N 011-04E 7M
Jan 21, 2020 - 03:55 AM EST / 2020.01.21 0855 UTC
Wind: from the NNE (020 degrees) at 13 MPH (11 KT):0
Visibility: greater than 7 mile(s):0
Temperature: 48 F (9 C)
Dew Point: 35 F (2 C)
Relative Humidity: 61%
Pressure (altimeter): 30.68 in. Hg (1039 hPa)
ob: LIRS 210855Z 02011KT CAVOK 09/02 Q1039
cycle: 9

Station Type Date Time Source
LIRS TAF 2018/06/29 09:24 UTC NOAA

TAF TAF LIRS 290800Z 2909/2921 VRB03KT 9999 FEW030
BECMG 2911/2913 24015KT

Example: see airport list